createdAt,value
2022-10-29T00:02:24.623Z,99229.50
2022-10-29T00:04:51.379Z,99223.34
2022-10-29T00:07:17.979Z,99218.91
2022-10-29T00:09:44.609Z,99216.31
2022-10-29T00:12:11.130Z,99221.63
2022-10-29T00:17:03.669Z,99211.00
2022-10-29T00:19:30.355Z,99211.88
2022-10-29T00:21:56.858Z,99212.00
2022-10-29T00:24:23.439Z,99211.00
2022-10-29T00:26:50.413Z,99213.78
2022-10-29T00:29:17.285Z,99209.34
2022-10-29T00:31:43.881Z,99212.94
2022-10-29T00:34:10.486Z,99209.34
2022-10-29T00:36:36.971Z,99199.06
2022-10-29T00:39:03.722Z,99206.78
2022-10-29T00:41:30.453Z,99210.31
2022-10-29T00:46:32.010Z,99207.75
2022-10-29T00:48:59.099Z,99205.94
2022-10-29T00:51:26.960Z,99212.22
2022-10-29T00:54:01.850Z,99209.56
2022-10-29T00:56:32.434Z,99206.16
2022-10-29T00:58:59.371Z,99206.16
2022-10-29T01:01:26.222Z,99205.31
2022-10-29T01:03:54.199Z,99199.19
2022-10-29T01:06:22.691Z,99199.25
2022-10-29T01:08:49.253Z,99198.31
2022-10-29T01:11:24.463Z,99199.19
2022-10-29T01:14:16.128Z,99187.69
2022-10-29T01:16:55.969Z,99191.28
2022-10-29T01:20:00.347Z,99188.66
2022-10-29T01:22:35.083Z,99179.97
2022-10-29T01:25:16.615Z,99179.97
2022-10-29T01:27:49.506Z,99172.84
2022-10-29T01:30:27.535Z,99178.16
2022-10-29T01:33:09.243Z,99179.09
2022-10-29T01:36:19.268Z,99173.78
2022-10-29T01:39:07.962Z,99174.88
2022-10-29T01:42:02.442Z,99175.63
2022-10-29T01:44:54.158Z,99173.91
2022-10-29T01:47:24.317Z,99175.72
2022-10-29T01:49:54.995Z,99168.59
2022-10-29T01:52:29.523Z,99168.59
2022-10-29T01:54:56.135Z,99166.78
2022-10-29T01:57:28.298Z,99165.94
2022-10-29T02:00:01.542Z,99154.50
2022-10-29T02:02:53.432Z,99148.22
2022-10-29T02:05:38.213Z,99158.81
2022-10-29T02:08:19.302Z,99143.88
2022-10-29T02:10:53.564Z,99148.31
2022-10-29T02:13:27.029Z,99149.28
2022-10-29T02:15:56.779Z,99148.31
2022-10-29T02:18:23.450Z,99146.63
2022-10-29T02:20:50.068Z,99142.06
2022-10-29T02:23:17.498Z,99139.53
2022-10-29T02:25:44.376Z,99144.84
2022-10-29T02:28:11.042Z,99130.72
2022-10-29T02:30:37.671Z,99134.34
2022-10-29T02:33:04.197Z,99143.97
2022-10-29T02:35:30.751Z,99137.84
2022-10-29T02:37:57.338Z,99147.63
2022-10-29T02:40:23.939Z,99144.97
2022-10-29T02:42:50.435Z,99144.97
2022-10-29T02:45:17.337Z,99153.75
2022-10-29T02:47:43.843Z,99140.59
2022-10-29T02:50:10.455Z,99140.50
2022-10-29T02:52:36.985Z,99141.44
2022-10-29T02:55:03.719Z,99129.03
2022-10-29T02:57:30.212Z,99126.38
2022-10-29T02:59:56.903Z,99132.66
2022-10-29T03:02:23.476Z,99134.44
2022-10-29T03:04:50.135Z,99131.78
2022-10-29T03:07:16.662Z,99131.78
2022-10-29T03:09:43.197Z,99130.00
2022-10-29T03:14:37.530Z,99134.56
2022-10-29T03:17:04.123Z,99141.69
2022-10-29T03:19:30.617Z,99133.72
2022-10-29T03:21:57.211Z,99127.56
2022-10-29T03:24:23.728Z,99129.38
2022-10-29T03:29:05.818Z,99143.59
2022-10-29T03:31:32.443Z,99130.31
2022-10-29T03:33:58.979Z,99123.19
2022-10-29T03:36:25.746Z,99116.19
2022-10-29T03:38:52.282Z,99116.31
2022-10-29T03:41:18.790Z,99120.66
2022-10-29T03:43:45.370Z,99122.47
2022-10-29T03:46:11.991Z,99112.81
2022-10-29T03:48:38.505Z,99114.53
2022-10-29T03:51:06.669Z,99107.41
2022-10-29T03:53:34.811Z,99106.63
2022-10-29T03:56:02.136Z,99092.34
2022-10-29T03:58:29.009Z,99115.47
2022-10-29T04:00:55.547Z,99117.19
2022-10-29T04:03:22.147Z,99119.06
2022-10-29T04:05:48.980Z,99127.84
2022-10-29T04:08:15.482Z,99140.19
2022-10-29T04:10:46.873Z,99122.53
2022-10-29T04:13:14.523Z,99125.19
2022-10-29T04:15:41.483Z,99118.22
2022-10-29T04:18:08.899Z,99119.06
2022-10-29T04:21:50.889Z,99116.50
2022-10-29T04:28:58.942Z,99120.13
2022-10-29T04:31:25.515Z,99097.00
2022-10-29T04:33:55.246Z,99118.31
2022-10-29T04:36:21.854Z,99122.78
2022-10-29T04:38:50.147Z,99124.56
2022-10-29T04:41:16.767Z,99116.00
2022-10-29T04:43:43.365Z,99117.59
2022-10-29T04:46:10.278Z,99098.59
2022-10-29T04:48:37.266Z,99107.94
2022-10-29T04:51:04.468Z,99116.84
2022-10-29T04:53:31.302Z,99126.63
2022-10-29T04:56:02.033Z,99116.00
2022-10-29T04:58:28.554Z,99121.31
2022-10-29T05:01:01.348Z,99116.84
2022-10-29T05:03:28.013Z,99118.66
2022-10-29T05:05:54.507Z,99114.19
2022-10-29T05:08:21.553Z,99126.63
2022-10-29T05:10:48.140Z,99126.63
2022-10-29T05:13:14.944Z,99122.25
2022-10-29T05:15:42.047Z,99126.63
2022-10-29T05:18:10.285Z,99126.50
2022-10-29T05:20:36.787Z,99137.09
2022-10-29T05:23:05.877Z,99113.88
2022-10-29T05:25:36.261Z,99123.84
2022-10-29T05:28:14.397Z,99121.31
2022-10-29T05:30:44.571Z,99121.31
2022-10-29T05:33:14.274Z,99113.22
2022-10-29T05:37:55.030Z,99113.22
2022-10-29T05:40:22.801Z,99137.94
2022-10-29T05:42:49.460Z,99118.41
2022-10-29T05:45:17.003Z,99123.22
2022-10-29T05:47:43.913Z,99118.53
2022-10-29T05:50:11.381Z,99124.78
2022-10-29T05:52:38.871Z,99116.72
2022-10-29T05:57:30.418Z,99066.38
2022-10-29T05:59:57.108Z,99122.16
2022-10-29T06:02:23.920Z,99126.00
2022-10-29T06:04:50.867Z,99128.41
2022-10-29T06:07:17.430Z,99128.72
2022-10-29T06:09:43.996Z,99121.31
2022-10-29T06:12:10.490Z,99124.91
2022-10-29T06:14:37.189Z,99124.91
2022-10-29T06:17:03.736Z,99123.22
2022-10-29T06:19:30.339Z,99124.16
2022-10-29T06:22:00.301Z,99134.78
2022-10-29T06:24:28.236Z,99121.53
2022-10-29T06:26:54.801Z,99122.47
2022-10-29T06:29:22.945Z,99132.97
2022-10-29T06:31:49.487Z,99129.34
2022-10-29T06:34:16.500Z,99123.22
2022-10-29T06:36:43.195Z,99137.31
2022-10-29T06:39:09.756Z,99137.31
2022-10-29T06:41:36.261Z,99129.34
2022-10-29T06:44:02.923Z,99132.75
2022-10-29T06:46:29.435Z,99144.13
2022-10-29T06:48:56.290Z,99154.59
2022-10-29T06:51:25.987Z,99161.69
2022-10-29T06:53:54.056Z,99150.25
2022-10-29T06:56:22.050Z,99155.56
2022-10-29T06:58:48.731Z,99137.88
2022-10-29T07:01:15.306Z,99154.59
2022-10-29T07:03:41.970Z,99162.56
2022-10-29T07:08:24.148Z,99166.91
2022-10-29T07:10:51.919Z,99176.59
2022-10-29T07:13:18.549Z,99170.41
2022-10-29T07:15:45.547Z,99173.94
2022-10-29T07:18:12.335Z,99176.50
2022-10-29T07:20:41.697Z,99179.97
2022-10-29T07:23:09.147Z,99179.03
2022-10-29T07:25:37.389Z,99177.63
2022-10-29T07:28:05.321Z,99198.34
2022-10-29T07:30:32.716Z,99183.25
2022-10-29T07:32:59.246Z,99184.97
2022-10-29T07:35:25.803Z,99182.13
2022-10-29T07:37:52.358Z,99177.53
2022-10-29T07:40:19.029Z,99184.31
2022-10-29T07:42:51.747Z,99192.16
2022-10-29T07:45:18.324Z,99191.28
2022-10-29T07:47:44.847Z,99189.72
2022-10-29T07:50:12.703Z,99190.47
2022-10-29T07:52:40.320Z,99172.78
2022-10-29T07:55:08.416Z,99194.06
2022-10-29T07:57:34.989Z,99196.72
2022-10-29T08:00:01.854Z,99196.72
2022-10-29T08:02:39.383Z,99193.94
2022-10-29T08:05:06.213Z,99203.63
2022-10-29T08:09:49.571Z,99204.31
2022-10-29T08:12:16.317Z,99206.94
2022-10-29T08:14:42.890Z,99215.22
2022-10-29T08:17:09.594Z,99217.97
2022-10-29T08:19:36.111Z,99215.22
2022-10-29T08:22:02.740Z,99216.91
2022-10-29T08:24:29.226Z,99215.34
2022-10-29T08:26:55.820Z,99224.69
2022-10-29T08:29:22.325Z,99222.84
2022-10-29T08:31:48.886Z,99234.34
2022-10-29T08:34:15.640Z,99220.13
2022-10-29T08:36:42.315Z,99213.84
2022-10-29T08:39:08.839Z,99218.31
2022-10-29T08:42:15.924Z,99219.16
2022-10-29T08:44:50.990Z,99215.66
2022-10-29T08:47:23.411Z,99212.25
2022-10-29T08:50:06.044Z,99215.97
2022-10-29T08:52:48.212Z,99214.19
2022-10-29T08:55:32.564Z,99214.19
2022-10-29T08:58:34.173Z,99204.41
2022-10-29T09:01:00.932Z,99219.50
2022-10-29T09:03:29.664Z,99190.94
2022-10-29T09:06:15.087Z,99213.13
2022-10-29T09:11:01.207Z,99214.69
2022-10-29T09:13:47.929Z,99213.84
2022-10-29T09:16:26.822Z,99208.66
2022-10-29T09:19:38.320Z,99206.31
2022-10-29T09:25:23.667Z,99211.22
2022-10-29T09:28:52.941Z,99199.66
2022-10-29T09:31:42.306Z,99194.34
2022-10-29T09:34:25.819Z,99200.72
2022-10-29T09:36:52.623Z,99203.38
2022-10-29T09:39:35.439Z,99199.66
2022-10-29T09:42:08.475Z,99196.66
2022-10-29T09:44:46.563Z,99170.81
2022-10-29T09:47:22.559Z,99195.28
2022-10-29T09:50:05.458Z,99193.25
2022-10-29T09:52:41.451Z,99201.00
2022-10-29T09:55:15.938Z,99196.53
2022-10-29T09:57:43.844Z,99200.06
2022-10-29T10:00:28.472Z,99204.38
2022-10-29T10:03:05.029Z,99195.47
2022-10-29T10:05:34.791Z,99191.88
2022-10-29T10:08:08.215Z,99198.88
2022-10-29T10:10:50.833Z,99197.06
2022-10-29T10:13:18.983Z,99179.47
2022-10-29T10:15:53.124Z,99174.06
2022-10-29T10:18:23.526Z,99176.59
2022-10-29T10:21:13.939Z,99166.72
2022-10-29T10:23:54.418Z,99172.75
2022-10-29T10:26:39.879Z,99169.25
2022-10-29T10:29:09.168Z,99154.19
2022-10-29T10:31:35.735Z,99156.00
2022-10-29T10:34:10.281Z,99157.28
2022-10-29T10:36:42.631Z,99154.94
2022-10-29T10:39:26.831Z,99151.97
2022-10-29T10:41:55.450Z,99154.38
2022-10-29T10:44:23.120Z,99149.84
2022-10-29T10:46:52.525Z,99151.53
2022-10-29T10:49:32.960Z,99146.41
2022-10-29T10:52:02.887Z,99129.34
2022-10-29T10:54:38.280Z,99141.88
2022-10-29T10:57:10.939Z,99142.72
2022-10-29T10:59:43.225Z,99141.78
2022-10-29T11:02:29.691Z,99147.00
2022-10-29T11:05:05.340Z,99143.47
2022-10-29T11:07:39.160Z,99126.25
2022-10-29T11:10:12.109Z,99118.25
2022-10-29T11:12:54.430Z,99140.19
2022-10-29T11:15:29.695Z,99132.09
2022-10-29T11:18:04.693Z,99124.06
2022-10-29T11:20:40.183Z,99124.69
2022-10-29T11:23:24.962Z,99130.00
2022-10-29T11:26:00.662Z,99121.16
2022-10-29T11:28:40.001Z,99118.50
2022-10-29T11:31:32.214Z,99122.03
2022-10-29T11:34:22.425Z,99119.38
2022-10-29T11:37:22.583Z,99121.16
2022-10-29T11:39:57.690Z,99116.09
2022-10-29T11:42:25.281Z,99114.28
2022-10-29T11:44:52.274Z,99124.69
2022-10-29T11:47:45.127Z,99127.22
2022-10-29T11:50:26.903Z,99123.63
2022-10-29T11:53:09.098Z,99124.34
2022-10-29T11:55:43.203Z,99119.75
2022-10-29T11:58:19.075Z,99118.81
2022-10-29T12:00:48.236Z,99111.69
2022-10-29T12:03:30.324Z,99111.69
2022-10-29T12:06:12.213Z,99116.16
2022-10-29T12:08:57.555Z,99115.22
2022-10-29T12:11:24.112Z,99115.22
2022-10-29T12:14:27.323Z,99104.59
2022-10-29T12:17:13.667Z,99117.84
2022-10-29T12:22:40.915Z,99101.06
2022-10-29T12:25:16.342Z,99103.63
2022-10-29T12:28:06.910Z,99097.47
2022-10-29T12:30:47.769Z,99089.50
2022-10-29T12:33:42.351Z,99090.47
2022-10-29T12:36:25.239Z,99087.72
2022-10-29T12:38:57.222Z,99065.56
2022-10-29T12:41:30.046Z,99071.88
2022-10-29T12:44:09.380Z,99069.75
2022-10-29T12:46:43.584Z,99078.44
2022-10-29T12:49:48.339Z,99077.47
2022-10-29T12:52:41.344Z,99077.34
2022-10-29T12:55:12.653Z,99072.03
2022-10-29T12:57:39.633Z,99076.28
2022-10-29T13:00:24.495Z,99085.22
2022-10-29T13:02:52.582Z,99086.06
2022-10-29T13:05:36.344Z,99082.56
2022-10-29T13:08:02.879Z,99084.25
2022-10-29T13:10:35.094Z,99080.00
2022-10-29T13:13:05.584Z,99068.56
2022-10-29T13:15:37.278Z,99076.53
2022-10-29T13:18:26.347Z,99065.03
2022-10-29T13:20:54.646Z,99068.69
2022-10-29T13:23:24.270Z,99071.34
2022-10-29T13:25:55.752Z,99068.69
2022-10-29T13:28:22.283Z,99076.66
2022-10-29T13:30:49.920Z,99072.28
2022-10-29T13:33:28.771Z,99069.63
2022-10-29T13:36:02.656Z,99077.47
2022-10-29T13:39:04.710Z,99077.47
2022-10-29T13:41:39.783Z,99070.34
2022-10-29T13:44:26.446Z,99064.22
2022-10-29T13:47:02.380Z,99065.91
2022-10-29T13:49:39.303Z,99067.59
2022-10-29T13:52:08.619Z,99073.00
2022-10-29T13:54:47.669Z,99070.25
2022-10-29T13:57:14.184Z,99065.03
2022-10-29T13:59:46.646Z,99070.25
2022-10-29T14:02:22.773Z,99064.94
2022-10-29T14:04:54.674Z,99051.41
2022-10-29T14:07:28.642Z,99069.31
2022-10-29T14:10:01.018Z,99064.81
2022-10-29T14:12:31.010Z,99070.25
2022-10-29T14:15:11.595Z,99067.59
2022-10-29T14:17:39.783Z,99064.81
2022-10-29T14:20:26.611Z,99069.31
2022-10-29T14:22:53.822Z,99070.13
2022-10-29T14:25:25.778Z,99056.13
2022-10-29T14:28:15.109Z,99059.66
2022-10-29T14:30:41.802Z,99048.16
2022-10-29T14:33:21.618Z,99056.88
2022-10-29T14:35:48.777Z,99047.66
2022-10-29T14:38:16.539Z,99042.97
2022-10-29T14:40:45.567Z,99054.97
2022-10-29T14:43:22.976Z,99043.47
2022-10-29T14:45:49.846Z,99054.09
2022-10-29T14:48:18.555Z,99051.44
2022-10-29T14:50:47.825Z,99053.25
2022-10-29T14:53:34.479Z,99051.44
2022-10-29T14:56:09.385Z,99046.72
2022-10-29T14:58:37.748Z,99058.31
2022-10-29T15:01:09.093Z,99056.75
2022-10-29T15:03:36.195Z,99063.53
2022-10-29T15:06:21.295Z,99061.72
2022-10-29T15:08:59.768Z,99073.16
2022-10-29T15:11:49.057Z,99075.81
2022-10-29T15:14:30.820Z,99074.16
2022-10-29T15:16:58.761Z,99068.84
2022-10-29T15:21:50.000Z,99073.16
2022-10-29T15:24:21.069Z,99071.38
2022-10-29T15:26:54.735Z,99074.88
2022-10-29T15:29:34.198Z,99073.91
2022-10-29T15:32:02.925Z,99077.44
2022-10-29T15:34:35.970Z,99075.00
2022-10-29T15:37:33.101Z,99083.56
2022-10-29T15:39:59.678Z,99086.22
2022-10-29T15:42:34.922Z,99073.78
2022-10-29T15:45:07.509Z,99072.94
2022-10-29T15:47:35.627Z,99080.09
2022-10-29T15:50:02.806Z,99082.22
2022-10-29T15:53:07.163Z,99090.78
2022-10-29T15:55:38.426Z,99087.19
2022-10-29T15:58:11.333Z,99093.34
2022-10-29T16:00:38.244Z,99093.34
2022-10-29T16:03:15.379Z,99085.41
2022-10-29T16:05:44.526Z,99089.84
2022-10-29T16:08:24.623Z,99088.03
2022-10-29T16:10:52.138Z,99089.84
2022-10-29T16:13:19.558Z,99074.88
2022-10-29T16:15:46.447Z,99086.34
2022-10-29T16:18:14.159Z,99084.66
2022-10-29T16:20:40.735Z,99074.16
2022-10-29T16:23:11.294Z,99079.34
2022-10-29T16:25:38.956Z,99059.97
2022-10-29T16:28:06.226Z,99075.09
2022-10-29T16:30:33.842Z,99086.44
2022-10-29T16:33:01.714Z,99082.00
2022-10-29T16:35:29.746Z,99086.44
2022-10-29T16:37:58.199Z,99075.81
2022-10-29T16:40:27.483Z,99079.34
2022-10-29T16:42:57.538Z,99071.38
2022-10-29T16:45:29.983Z,99072.22
2022-10-29T16:47:58.100Z,99073.16
2022-10-29T16:50:26.033Z,99068.72
2022-10-29T16:53:00.128Z,99065.56
2022-10-29T16:55:28.201Z,99078.38
2022-10-29T16:57:55.345Z,99079.22
2022-10-29T17:00:23.118Z,99084.66
2022-10-29T17:02:49.633Z,99082.84
2022-10-29T17:05:16.273Z,99076.56
2022-10-29T17:07:42.812Z,99085.97
2022-10-29T17:10:10.042Z,99078.88
2022-10-29T17:12:36.915Z,99077.06
2022-10-29T17:15:03.685Z,99083.25
2022-10-29T17:17:31.014Z,99082.38
2022-10-29T17:19:57.888Z,99080.59
2022-10-29T17:22:24.819Z,99081.53
2022-10-29T17:24:51.376Z,99085.03
2022-10-29T17:27:17.941Z,99090.25
2022-10-29T17:29:44.592Z,99082.16
2022-10-29T17:32:11.115Z,99082.03
2022-10-29T17:34:37.687Z,99089.03
2022-10-29T17:37:04.297Z,99094.34
2022-10-29T17:39:30.958Z,99090.75
2022-10-29T17:41:57.571Z,99092.44
2022-10-29T17:44:26.440Z,99076.44
2022-10-29T17:46:53.732Z,99085.88
2022-10-29T17:49:21.021Z,99094.97
2022-10-29T17:51:47.829Z,99090.50
2022-10-29T17:54:15.860Z,99094.03
2022-10-29T17:58:56.740Z,99084.97
2022-10-29T18:01:23.450Z,99085.69
2022-10-29T18:03:50.093Z,99089.94
2022-10-29T18:06:17.168Z,99070.22
2022-10-29T18:08:43.867Z,99092.34
2022-10-29T18:11:15.402Z,99093.94
2022-10-29T18:13:43.802Z,99074.97
2022-10-29T18:16:12.790Z,99079.56
2022-10-29T18:18:54.389Z,99072.81
2022-10-29T18:21:27.781Z,99082.00
2022-10-29T18:23:54.341Z,99081.03
2022-10-29T18:26:32.330Z,99095.06
2022-10-29T18:29:01.017Z,99089.34
2022-10-29T18:31:30.370Z,99088.78
2022-10-29T18:33:58.524Z,99091.31
2022-10-29T18:36:27.419Z,99085.91
2022-10-29T18:38:56.206Z,99078.78
2022-10-29T18:41:23.417Z,99084.09
2022-10-29T18:43:50.769Z,99080.50
2022-10-29T18:46:18.275Z,99062.66
2022-10-29T18:48:48.781Z,99085.66
2022-10-29T18:51:21.079Z,99084.84
2022-10-29T18:53:47.628Z,99080.22
2022-10-29T18:56:17.283Z,99086.41
2022-10-29T18:58:44.229Z,99079.28
2022-10-29T19:01:12.107Z,99064.88
2022-10-29T19:03:39.431Z,99084.38
2022-10-29T19:06:08.726Z,99075.66
2022-10-29T19:08:40.699Z,99080.75
2022-10-29T19:11:10.009Z,99094.75
2022-10-29T19:13:36.912Z,99096.44
2022-10-29T19:16:11.377Z,99090.16
2022-10-29T19:18:39.748Z,99090.16
2022-10-29T19:21:11.732Z,99079.41
2022-10-29T19:23:38.570Z,99090.91
2022-10-29T19:26:10.755Z,99092.47
2022-10-29T19:28:38.046Z,99087.03
2022-10-29T19:31:06.958Z,99088.75
2022-10-29T19:33:34.204Z,99088.75
2022-10-29T19:36:01.660Z,99088.63
2022-10-29T19:38:28.474Z,99091.16
2022-10-29T19:40:58.743Z,99090.06
2022-10-29T19:43:26.342Z,99096.00
2022-10-29T19:45:53.259Z,99092.25
2022-10-29T19:48:19.995Z,99099.16
2022-10-29T19:50:53.825Z,99092.75
2022-10-29T19:53:21.004Z,99092.75
2022-10-29T19:55:50.321Z,99090.94
2022-10-29T19:58:18.096Z,99092.63
2022-10-29T20:00:44.895Z,99089.97
2022-10-29T20:03:12.951Z,99092.38
2022-10-29T20:05:40.746Z,99083.34
2022-10-29T20:08:11.391Z,99085.75
2022-10-29T20:10:41.491Z,99088.19
2022-10-29T20:13:08.475Z,99103.03
2022-10-29T20:15:35.052Z,99103.75
2022-10-29T20:18:04.191Z,99102.78
2022-10-29T20:20:30.728Z,99110.63
2022-10-29T20:22:57.601Z,99102.56
2022-10-29T20:25:24.499Z,99108.59
2022-10-29T20:27:51.007Z,99103.22
2022-10-29T20:30:17.883Z,99105.75
2022-10-29T20:32:44.424Z,99106.47
2022-10-29T20:35:10.960Z,99097.41
2022-10-29T20:37:37.466Z,99096.41
2022-10-29T20:40:05.077Z,99099.81
2022-10-29T20:42:31.660Z,99101.38
2022-10-29T20:44:58.199Z,99103.06
2022-10-29T20:47:25.023Z,99109.97
2022-10-29T20:49:51.979Z,99113.22
2022-10-29T20:52:18.608Z,99127.50
2022-10-29T20:54:45.440Z,99113.09
2022-10-29T20:57:12.015Z,99105.84
2022-10-29T20:59:38.606Z,99111.03
2022-10-29T21:02:05.255Z,99110.22
2022-10-29T21:04:31.843Z,99114.81
2022-10-29T21:06:58.450Z,99114.09
2022-10-29T21:09:25.069Z,99116.84
2022-10-29T21:11:51.612Z,99116.16
2022-10-29T21:14:18.152Z,99108.16
2022-10-29T21:21:28.219Z,99103.81
2022-10-29T21:23:56.555Z,99105.75
2022-10-29T21:26:26.143Z,99109.34
2022-10-29T21:28:53.661Z,99116.63
2022-10-29T21:31:21.667Z,99091.00
2022-10-29T21:33:52.203Z,99091.09
2022-10-29T21:36:19.779Z,99086.78
2022-10-29T21:38:46.304Z,99070.31
2022-10-29T21:41:12.951Z,99068.38
2022-10-29T21:43:39.798Z,99072.75
2022-10-29T21:46:07.263Z,99068.09
2022-10-29T21:48:33.912Z,99066.00
2022-10-29T21:51:01.855Z,99071.19
2022-10-29T21:53:29.063Z,99069.47
2022-10-29T21:56:00.130Z,99065.13
2022-10-29T21:58:27.569Z,99064.25
2022-10-29T22:01:20.258Z,99055.53
2022-10-29T22:03:47.644Z,99041.41
2022-10-29T22:06:19.326Z,99041.66
2022-10-29T22:08:47.449Z,99055.81
2022-10-29T22:11:15.370Z,99056.63
2022-10-29T22:13:42.022Z,99043.34
2022-10-29T22:16:09.429Z,99031.00
2022-10-29T22:18:37.662Z,99034.63
2022-10-29T22:21:07.581Z,99043.56
2022-10-29T22:23:34.759Z,99015.44
2022-10-29T22:26:01.510Z,99044.56
2022-10-29T22:28:28.797Z,99041.16
2022-10-29T22:31:00.337Z,99042.13
2022-10-29T22:33:27.519Z,99035.00
2022-10-29T22:35:54.340Z,99036.81
2022-10-29T22:38:21.096Z,99031.63
2022-10-29T22:40:47.626Z,99030.75
2022-10-29T22:43:16.022Z,99028.09
2022-10-29T22:45:48.133Z,99016.66
2022-10-29T22:48:14.690Z,99036.22
2022-10-29T22:50:41.445Z,99029.19
2022-10-29T22:53:08.007Z,99031.03
2022-10-29T22:55:34.523Z,99025.84
2022-10-29T22:58:01.071Z,99018.69
2022-10-29T23:00:27.681Z,99023.16
2022-10-29T23:02:54.303Z,99023.28
2022-10-29T23:05:21.006Z,99025.94
2022-10-29T23:07:47.605Z,99023.41
2022-10-29T23:10:14.332Z,99024.38
2022-10-29T23:12:40.839Z,99028.72
2022-10-29T23:15:08.749Z,99027.03
2022-10-29T23:17:35.302Z,99017.34
2022-10-29T23:20:01.835Z,99016.50
2022-10-29T23:22:28.435Z,99013.84
2022-10-29T23:24:54.906Z,99003.34
2022-10-29T23:27:21.479Z,99021.97
2022-10-29T23:29:48.046Z,99022.91
2022-10-29T23:32:14.591Z,99021.34
2022-10-29T23:34:41.071Z,99024.75
2022-10-29T23:37:09.904Z,99024.84
2022-10-29T23:39:37.166Z,99031.03
2022-10-29T23:42:03.959Z,99030.16
2022-10-29T23:44:30.559Z,99035.47
2022-10-29T23:46:57.139Z,99024.97
2022-10-29T23:49:23.635Z,99024.13
2022-10-29T23:51:50.287Z,99017.97
2022-10-29T23:54:16.781Z,99006.63
2022-10-29T23:56:43.380Z,99013.72
2022-10-29T23:59:09.922Z,99020.00
